Time;durP1;ratioP1;P1;durP2;ratioP2;P2;SDS_P1;SDS_P2;PMS_P1;PMS_P2;Temp;Humidity;BMP_temperature;BMP_pressure;BME280_temperature;BME280_humidity;BME280_pressure;Samples;Min_cycle;Max_cycle;Signal;HPM_P1;HPM_P2
2021/01/12 00:02:01;;;;;;;;;;;8.60;99.90;;;;;;5099839;28;20303;-57
2021/01/12 00:04:26;;;;;;;;;;;8.60;99.90;;;;;;5082092;28;20428;-58
2021/01/12 00:06:52;;;;;;;;;;;8.60;99.90;;;;;;5081727;28;20037;-57
2021/01/12 00:09:18;;;;;;;;;;;8.60;99.90;;;;;;5099442;28;20079;-57
2021/01/12 00:11:43;;;;;;;;;;;8.60;99.90;;;;;;5099814;28;20301;-57
2021/01/12 00:16:53;;;;;;;3.20;0.75;;;8.60;99.90;;;;;;5099297;28;20063;-56
2021/01/12 00:19:18;;;;;;;;;;;8.60;99.90;;;;;;5081357;28;20070;-57
2021/01/12 00:21:44;;;;;;;;;;;8.60;99.90;;;;;;5118437;28;19907;-58
2021/01/12 00:24:09;;;;;;;;;;;8.60;99.90;;;;;;5119955;28;20310;-58
2021/01/12 00:26:35;;;;;;;;;;;8.60;99.90;;;;;;5101334;28;19935;-57
2021/01/12 00:29:00;;;;;;;;;;;8.50;99.90;;;;;;5120080;28;20210;-57
2021/01/12 00:31:26;;;;;;;;;;;8.50;99.90;;;;;;5119934;28;19915;-57
2021/01/12 00:33:51;;;;;;;;;;;8.60;99.90;;;;;;5119529;28;19914;-57
2021/01/12 00:36:17;;;;;;;;;;;8.60;99.90;;;;;;5118947;28;19915;-57
2021/01/12 00:38:42;;;;;;;;;;;8.60;99.90;;;;;;5119678;28;19908;-57
2021/01/12 00:41:08;;;;;;;;;;;8.60;99.90;;;;;;5119378;28;19907;-57
2021/01/12 00:43:33;;;;;;;;;;;8.60;99.90;;;;;;5119482;28;19908;-57
2021/01/12 00:45:59;;;;;;;;;;;8.60;99.90;;;;;;5101008;28;19943;-58
2021/01/12 00:48:24;;;;;;;;;;;8.60;99.90;;;;;;5119433;28;19912;-58
2021/01/12 00:50:50;;;;;;;;;;;8.60;99.90;;;;;;5118137;28;19968;-57
2021/01/12 00:53:15;;;;;;;;;;;8.60;99.90;;;;;;5119202;28;20166;-58
2021/01/12 00:55:41;;;;;;;;;;;8.60;99.90;;;;;;5119046;28;19960;-57
2021/01/12 00:58:06;;;;;;;;;;;8.60;99.90;;;;;;5118965;28;19908;-58
2021/01/12 01:00:32;;;;;;;;;;;8.50;99.90;;;;;;5118970;28;19908;-58
2021/01/12 01:02:58;;;;;;;;;;;8.60;99.90;;;;;;5118953;28;19907;-58
2021/01/12 01:05:23;;;;;;;;;;;8.60;99.90;;;;;;5118522;28;19908;-58
2021/01/12 01:07:49;;;;;;;;;;;8.50;99.90;;;;;;5119080;28;19963;-59
2021/01/12 01:10:14;;;;;;;;;;;8.60;99.90;;;;;;5118535;28;20001;-58
2021/01/12 01:12:40;;;;;;;;;;;8.60;99.90;;;;;;5118721;28;20324;-58
2021/01/12 01:15:06;;;;;;;;;;;8.60;99.90;;;;;;5118597;28;19907;-58
2021/01/12 01:17:34;;;;;;;;;;;8.60;99.90;;;;;;5118798;28;19910;-58
2021/01/12 01:19:59;;;;;;;;;;;8.60;99.90;;;;;;5113953;28;19949;-58
2021/01/12 01:22:25;;;;;;;;;;;8.60;99.90;;;;;;5098454;28;19908;-58
2021/01/12 01:24:50;;;;;;;;;;;8.60;99.90;;;;;;5079894;28;20214;-58
2021/01/12 01:27:16;;;;;;;;;;;8.60;99.90;;;;;;5098231;28;19914;-58
2021/01/12 01:29:42;;;;;;;;;;;8.60;99.90;;;;;;5097978;28;19908;-58
2021/01/12 01:32:09;;;;;;;;;;;8.60;99.90;;;;;;5098187;28;19911;-58
2021/01/12 01:34:34;;;;;;;;;;;8.60;99.90;;;;;;5097819;28;20183;-58
2021/01/12 01:37:00;;;;;;;;;;;8.60;99.90;;;;;;5077491;28;20235;-57
2021/01/12 01:39:26;;;;;;;;;;;8.50;99.90;;;;;;5039972;28;19931;-58
2021/01/12 01:41:54;;;;;;;;;;;8.50;99.90;;;;;;5069139;28;19909;-58
2021/01/12 01:44:19;;;;;;;;;;;8.50;99.90;;;;;;5077485;28;19904;-58
2021/01/12 01:46:45;;;;;;;;;;;8.50;99.90;;;;;;5077138;28;19920;-58
2021/01/12 01:49:11;;;;;;;;;;;8.60;99.90;;;;;;5059567;28;20215;-58
2021/01/12 01:51:37;;;;;;;;;;;8.50;99.90;;;;;;5077371;28;20220;-58
2021/01/12 01:54:03;;;;;;;;;;;8.50;99.90;;;;;;5077659;28;19910;-58
2021/01/12 01:56:28;;;;;;;;;;;8.60;99.90;;;;;;5077242;28;19904;-58
2021/01/12 01:58:54;;;;;;;;;;;8.60;99.90;;;;;;5076993;28;20311;-58
2021/01/12 02:01:19;;;;;;;;;;;8.60;99.90;;;;;;5077303;28;20268;-57
2021/01/12 02:03:50;;;;;;;;;;;8.60;99.90;;;;;;5077086;28;19912;-58
2021/01/12 02:06:19;;;;;;;;;;;8.60;99.90;;;;;;5076762;28;19904;-58
2021/01/12 02:08:52;;;;;;;;;;;8.60;99.90;;;;;;5077389;28;19950;-58
2021/01/12 02:11:18;;;;;;;;;;;8.60;99.90;;;;;;5075769;28;19905;-58
2021/01/12 02:13:44;;;;;;;;;;;8.60;99.90;;;;;;5077184;28;19953;-58
2021/01/12 02:16:09;;;;;;;;;;;8.60;99.90;;;;;;5076616;28;19905;-58
2021/01/12 02:18:35;;;;;;;;;;;8.50;99.90;;;;;;5076993;28;19911;-58
2021/01/12 02:21:02;;;;;;;;;;;8.50;99.90;;;;;;5064127;28;19994;-58
2021/01/12 02:23:36;;;;;;;;;;;8.60;99.90;;;;;;5056523;28;19909;-57
2021/01/12 02:26:02;;;;;;;;;;;8.60;99.90;;;;;;5057130;28;19958;-58
2021/01/12 02:28:27;;;;;;;;;;;8.60;99.90;;;;;;5056312;28;19909;-58
2021/01/12 02:30:53;;;;;;;;;;;8.60;99.90;;;;;;5056933;28;19905;-58
2021/01/12 02:33:18;;;;;;;;;;;8.60;99.90;;;;;;5061126;28;20006;-58
2021/01/12 02:35:49;;;;;;;;;;;8.60;99.90;;;;;;5077014;28;19908;-58
2021/01/12 02:38:14;;;;;;;;;;;8.60;99.90;;;;;;5115275;28;19943;-58
2021/01/12 02:40:40;;;;;;;;;;;8.60;99.90;;;;;;5117094;28;20214;-59
2021/01/12 02:43:06;;;;;;;;;;;8.60;99.90;;;;;;5117544;28;20306;-58
2021/01/12 02:45:31;;;;;;;;;;;8.70;99.90;;;;;;5115817;28;20259;-59
2021/01/12 02:47:57;;;;;;;;;;;8.70;99.90;;;;;;5116875;28;20229;-58
2021/01/12 02:50:23;;;;;;;;;;;8.70;99.90;;;;;;5117546;28;19932;-58
2021/01/12 02:52:48;;;;;;;;;;;8.70;99.90;;;;;;5117224;28;19930;-58
2021/01/12 02:55:14;;;;;;;;;;;8.80;99.90;;;;;;5116794;28;19956;-58
2021/01/12 02:57:40;;;;;;;;;;;8.80;99.90;;;;;;5117111;28;20331;-58
2021/01/12 03:00:06;;;;;;;;;;;8.80;99.90;;;;;;5116885;28;19911;-58
2021/01/12 03:02:32;;;;;;;;;;;8.90;99.90;;;;;;5116861;28;19908;-58
2021/01/12 03:04:57;;;;;;;;;;;8.90;99.90;;;;;;5117377;28;19904;-58
2021/01/12 03:07:23;;;;;;;;;;;8.90;99.90;;;;;;5116742;28;19916;-57
2021/01/12 03:09:48;;;;;;;;;;;9.00;99.90;;;;;;5117051;28;19908;-58
2021/01/12 03:12:14;;;;;;;;;;;9.00;99.90;;;;;;5116998;28;19907;-58
2021/01/12 03:14:41;;;;;;;;;;;8.90;99.90;;;;;;5119523;28;19952;-58
2021/01/12 03:17:10;;;;;;;;;;;8.90;99.90;;;;;;5121079;28;19914;-58
2021/01/12 03:19:36;;;;;;;;;;;8.90;99.90;;;;;;5121169;28;19949;-58
2021/01/12 03:22:02;;;;;;;;;;;9.00;99.90;;;;;;5121160;28;19908;-58
2021/01/12 03:24:27;;;;;;;;;;;9.00;99.90;;;;;;5120869;28;19998;-58
2021/01/12 03:26:53;;;;;;;;;;;9.10;99.90;;;;;;5120953;28;19912;-58
2021/01/12 03:29:18;;;;;;;;;;;9.10;99.90;;;;;;5121045;28;20312;-58
2021/01/12 03:31:44;;;;;;;;;;;9.10;99.90;;;;;;5120559;28;19908;-58
2021/01/12 03:34:09;;;;;;;;;;;9.20;99.90;;;;;;5120723;28;19907;-58
2021/01/12 03:36:35;;;;;;;;;;;9.30;99.90;;;;;;5120915;28;19922;-58
2021/01/12 03:39:00;;;;;;;;;;;9.30;99.90;;;;;;5120919;28;19922;-57
2021/01/12 03:41:26;;;;;;;;;;;9.30;99.90;;;;;;5121084;28;19943;-57
2021/01/12 03:43:51;;;;;;;;;;;9.40;99.90;;;;;;5102273;28;19960;-58
2021/01/12 03:46:17;;;;;;;;;;;9.40;99.90;;;;;;5120234;28;19908;-57
2021/01/12 03:48:42;;;;;;;;;;;9.50;99.90;;;;;;5120472;28;19943;-57
2021/01/12 03:51:08;;;;;;;;;;;9.40;99.90;;;;;;5120559;28;20298;-58
2021/01/12 03:53:33;;;;;;;;;;;9.40;99.90;;;;;;5120341;28;19903;-57
2021/01/12 03:55:59;;;;;;;;;;;9.50;99.90;;;;;;5119965;28;20375;-58
2021/01/12 03:58:24;;;;;;;;;;;9.50;99.90;;;;;;5120512;28;19908;-58
2021/01/12 04:00:50;;;;;;;;;;;9.50;99.90;;;;;;5084923;28;19912;-57
2021/01/12 04:03:15;;;;;;;;;;;9.60;99.90;;;;;;5120412;28;19914;-57
2021/01/12 04:05:41;;;;;;;;;;;9.50;99.90;;;;;;5120046;28;19996;-57
2021/01/12 04:08:07;;;;;;;;;;;9.50;99.90;;;;;;5120329;28;20202;-57
2021/01/12 04:10:33;;;;;;;;;;;9.60;99.90;;;;;;5120013;28;20279;-57
2021/01/12 04:13:02;;;;;;;;;;;9.70;99.90;;;;;;5119962;28;19904;-59
2021/01/12 04:15:28;;;;;;;;;;;9.60;99.90;;;;;;5119629;28;20041;-57
2021/01/12 04:17:53;;;;;;;;;;;9.60;99.90;;;;;;5120131;28;19915;-56
2021/01/12 04:20:19;;;;;;;;;;;9.60;99.90;;;;;;5084586;28;19947;-58
2021/01/12 04:22:44;;;;;;;;;;;9.60;99.90;;;;;;5120051;28;19910;-56
2021/01/12 04:25:10;;;;;;;;;;;9.70;99.90;;;;;;5118410;28;19907;-56
2021/01/12 04:27:36;;;;;;;;;;;9.60;99.90;;;;;;5120243;28;19951;-56
2021/01/12 04:30:03;;;;;;;;;;;9.70;99.90;;;;;;5119619;28;20002;-56
2021/01/12 04:32:28;;;;;;;;;;;9.70;99.90;;;;;;5119737;28;19908;-56
2021/01/12 04:34:54;;;;;;;;;;;9.80;99.90;;;;;;5119595;28;19914;-56
2021/01/12 04:37:19;;;;;;;;;;;9.80;99.90;;;;;;5119460;28;20222;-57
2021/01/12 04:39:45;;;;;;;;;;;9.70;99.90;;;;;;5119401;28;20225;-56
2021/01/12 04:42:10;;;;;;;;;;;9.70;99.90;;;;;;5118061;28;19907;-57
2021/01/12 04:44:36;;;;;;;;;;;9.70;99.90;;;;;;5119327;28;19908;-57
2021/01/12 04:47:04;;;;;;;;;;;9.80;99.90;;;;;;5119411;28;19914;-57
2021/01/12 04:49:29;;;;;;;;;;;9.70;99.90;;;;;;5119291;28;19904;-57
2021/01/12 04:51:55;;;;;;;;;;;9.70;99.90;;;;;;5119525;28;19908;-57
2021/01/12 04:54:25;;;;;;;;;;;9.70;99.90;;;;;;5118953;28;20271;-56
2021/01/12 04:56:54;;;;;;;;;;;9.70;99.90;;;;;;5119292;28;20290;-57
2021/01/12 04:59:29;;;;;;;;;;;9.70;99.90;;;;;;5119006;28;20352;-56
2021/01/12 05:01:56;;;;;;;;;;;9.70;99.90;;;;;;5119270;28;19904;-56
2021/01/12 05:04:21;;;;;;;;;;;9.70;99.90;;;;;;5099992;28;19969;-56
2021/01/12 05:06:47;;;;;;;;;;;9.80;99.90;;;;;;5118843;28;20299;-56
2021/01/12 05:09:18;;;;;;;;;;;9.80;99.90;;;;;;5118466;28;19943;-57
2021/01/12 05:11:44;;;;;;;;;;;9.80;99.90;;;;;;5118796;28;19957;-57
2021/01/12 05:14:09;;;;;;;;;;;9.80;99.90;;;;;;5118597;28;19904;-57
2021/01/12 05:16:44;;;;;;;;;;;9.90;99.90;;;;;;5118634;28;19904;-57
2021/01/12 05:19:12;;;;;;;;;;;9.80;99.90;;;;;;5118940;28;19914;-57
2021/01/12 05:21:38;;;;;;;;;;;9.80;99.90;;;;;;5100093;28;19904;-57
2021/01/12 05:24:05;;;;;;;;;;;9.80;99.90;;;;;;5098231;28;19984;-57
2021/01/12 05:26:32;;;;;;;;;;;9.80;99.90;;;;;;5097828;28;19912;-57
2021/01/12 05:28:58;;;;;;;;;;;9.80;99.90;;;;;;5098074;28;19904;-57
2021/01/12 05:31:25;;;;;;;;;;;9.80;99.90;;;;;;5097610;28;19999;-57
2021/01/12 05:33:51;;;;;;;;;;;9.90;99.90;;;;;;5098014;28;19915;-56
2021/01/12 05:36:16;;;;;;;;;;;9.90;99.90;;;;;;5097221;28;20002;-56
2021/01/12 05:38:45;;;;;;;;;;;9.90;99.90;;;;;;5097983;28;19912;-58
2021/01/12 05:41:11;;;;;;;;;;;9.80;99.90;;;;;;5104887;28;20321;-56
2021/01/12 05:43:37;;;;;;;;;;;9.90;99.90;;;;;;5118258;28;19904;-56
2021/01/12 05:46:10;;;;;;;;;;;9.80;99.90;;;;;;5099737;28;19904;-56
2021/01/12 05:48:36;;;;;;;;;;;9.80;99.90;;;;;;5118244;28;19908;-56
2021/01/12 05:51:07;;;;;;;;;;;9.90;99.90;;;;;;5118091;28;19930;-56
2021/01/12 05:53:54;;;;;;;;;;;9.90;99.90;;;;;;5118298;28;19943;-56
2021/01/12 05:56:21;;;;;;;;;;;9.90;99.90;;;;;;5117863;28;19939;-56
2021/01/12 05:58:50;;;;;;;;;;;9.90;99.90;;;;;;5118277;28;19918;-56
2021/01/12 06:01:32;;;;;;;;;;;9.90;99.90;;;;;;5117531;28;19903;-56
2021/01/12 06:03:58;;;;;;;;;;;9.90;99.90;;;;;;5118136;28;19904;-56
2021/01/12 06:06:24;;;;;;;;;;;9.90;99.90;;;;;;5117794;28;19908;-56
2021/01/12 06:08:50;;;;;;;;;;;9.90;99.90;;;;;;5117930;28;19908;-56
2021/01/12 06:11:18;;;;;;;;;;;9.90;99.90;;;;;;5099452;28;20013;-56
2021/01/12 06:13:52;;;;;;;;;;;9.90;99.90;;;;;;5117886;28;19998;-56
2021/01/12 06:16:21;;;;;;;;;;;9.90;99.90;;;;;;5117566;28;19904;-56
2021/01/12 06:18:57;;;;;;;;;;;9.90;99.90;;;;;;5117613;28;20286;-56
2021/01/12 06:21:26;;;;;;;;;;;9.80;99.90;;;;;;5117544;28;20364;-56
2021/01/12 06:23:57;;;;;;;;;;;9.80;99.90;;;;;;5117968;28;20010;-56
2021/01/12 06:26:23;;;;;;;;;;;9.90;99.90;;;;;;5098765;28;20036;-56
2021/01/12 06:28:50;;;;;;;;;;;9.90;99.90;;;;;;5117682;28;19998;-56
2021/01/12 06:31:16;;;;;;;;;;;9.80;99.90;;;;;;5117160;28;19903;-56
2021/01/12 06:33:41;;;;;;;;;;;9.80;99.90;;;;;;5117780;28;19907;-56
2021/01/12 06:36:07;;;;;;;;;;;9.80;99.90;;;;;;5117028;28;20302;-56
2021/01/12 06:38:37;;;;;;;;;;;9.80;99.90;;;;;;5117271;28;19926;-56
2021/01/12 06:41:05;;;;;;;;;;;9.80;99.90;;;;;;5117533;28;19908;-56
2021/01/12 06:43:30;;;;;;;;;;;9.80;99.90;;;;;;5117506;28;19907;-56
2021/01/12 06:45:56;;;;;;;;;;;9.80;99.90;;;;;;5117370;28;19908;-56
2021/01/12 06:48:22;;;;;;;;;;;9.80;99.90;;;;;;5117742;28;19916;-56
2021/01/12 06:50:47;;;;;;;;;;;9.80;99.90;;;;;;5103539;28;19990;-56
2021/01/12 06:53:14;;;;;;;;;;;9.90;99.90;;;;;;5121563;28;19904;-56
2021/01/12 06:55:39;;;;;;;;;;;9.90;99.90;;;;;;5121958;28;20006;-56
2021/01/12 06:58:11;;;;;;;;;;;9.90;99.90;;;;;;5121581;28;19939;-56
2021/01/12 07:00:36;;;;;;;;;;;9.90;99.90;;;;;;5121893;28;19904;-56
2021/01/12 07:03:02;;;;;;;;;;;9.90;99.90;;;;;;5121446;28;19903;-56
2021/01/12 07:05:38;;;;;;;;;;;9.90;99.90;;;;;;5121798;28;19907;-56
2021/01/12 07:08:07;;;;;;;;;;;9.90;99.90;;;;;;5121294;28;19957;-56
2021/01/12 07:10:39;;;;;;;;;;;9.90;99.90;;;;;;5121788;28;19910;-56
2021/01/12 07:13:06;;;;;;;;;;;9.80;99.90;;;;;;5121369;28;19904;-56
2021/01/12 07:15:40;;;;;;;;;;;9.90;99.90;;;;;;5121347;28;20305;-56
2021/01/12 07:18:06;;;;;;;;;;;9.90;99.90;;;;;;5121573;28;20278;-56
2021/01/12 07:20:34;;;;;;;;;;;9.90;99.90;;;;;;5112091;28;19961;-56
2021/01/12 07:23:04;;;;;;;;;;;9.80;99.90;;;;;;5100763;28;20127;-56
2021/01/12 07:25:31;;;;;;;;;;;9.80;99.90;;;;;;5100407;28;19942;-56
2021/01/12 07:28:01;;;;;;;;;;;9.80;99.90;;;;;;5100833;28;19915;-56
2021/01/12 07:30:27;;;;;;;;;;;9.90;99.90;;;;;;5100518;28;19904;-56
2021/01/12 07:32:56;;;;;;;;;;;9.90;99.90;;;;;;5100758;28;19904;-56
2021/01/12 07:35:22;;;;;;;;;;;9.90;99.90;;;;;;5100422;28;20371;-56
2021/01/12 07:37:47;;;;;;;;;;;9.80;99.90;;;;;;5075930;28;19956;-56
2021/01/12 07:40:13;;;;;;;;;;;9.80;99.90;;;;;;5059995;28;19921;-56
2021/01/12 07:43:05;;;;;;;;;;;9.80;99.90;;;;;;5060331;28;19909;-56
2021/01/12 07:45:32;;;;;;;;;;;9.80;99.90;;;;;;5056172;28;20325;-56
2021/01/12 07:47:58;;;;;;;;;;;9.80;99.90;;;;;;5059707;28;19909;-56
2021/01/12 07:50:25;;;;;;;;;;;9.80;99.90;;;;;;5059541;28;19963;-56
2021/01/12 07:52:50;;;;;;;;;;;9.80;99.90;;;;;;5059918;28;19919;-56
2021/01/12 07:55:16;;;;;;;;;;;9.80;99.90;;;;;;5059813;28;19908;-56
2021/01/12 07:57:42;;;;;;;;;;;9.80;99.90;;;;;;5059671;28;19905;-56
2021/01/12 08:00:09;;;;;;;;;;;9.80;99.90;;;;;;5058968;28;20319;-56
2021/01/12 08:02:35;;;;;;;;;;;9.80;99.90;;;;;;5059618;28;19909;-55
2021/01/12 08:05:07;;;;;;;;;;;9.80;99.90;;;;;;5059188;28;19982;-56
2021/01/12 08:07:33;;;;;;;;;;;9.90;99.90;;;;;;5059353;28;19931;-56
2021/01/12 08:09:59;;;;;;;;;;;9.90;99.90;;;;;;5059110;28;20291;-55
2021/01/12 08:12:24;;;;;;;;;;;9.90;99.90;;;;;;5059288;28;19905;-55
2021/01/12 08:14:51;;;;;;;;;;;9.90;99.90;;;;;;5058999;28;19905;-55
2021/01/12 08:17:25;;;;;;;;;;;9.90;99.90;;;;;;5059098;28;19927;-55
2021/01/12 08:19:52;;;;;;;;;;;9.90;99.90;;;;;;5059195;28;19909;-56
2021/01/12 08:22:17;;;;;;;;;;;9.90;99.90;;;;;;5059209;28;19954;-56
2021/01/12 08:24:44;;;;;;;;;;;9.90;99.90;;;;;;5058871;28;19909;-56
2021/01/12 08:27:10;;;;;;;;;;;9.80;99.90;;;;;;5058981;28;20004;-56
2021/01/12 08:29:35;;;;;;;;;;;9.90;99.90;;;;;;5058887;28;19940;-56
2021/01/12 08:32:03;;;;;;;;;;;9.90;99.90;;;;;;5058867;28;19999;-56
2021/01/12 08:34:30;;;;;;;;;;;9.80;99.90;;;;;;5041036;28;19915;-56
2021/01/12 08:36:57;;;;;;;;;;;9.80;99.90;;;;;;5062746;28;19912;-56
2021/01/12 08:39:23;;;;;;;;;;;9.80;99.90;;;;;;5078753;28;19904;-56
2021/01/12 08:41:49;;;;;;;;;;;9.80;99.90;;;;;;5077249;28;20222;-56
2021/01/12 08:44:16;;;;;;;;;;;9.80;99.90;;;;;;5078883;28;19911;-56
2021/01/12 08:46:41;;;;;;;;;;;9.70;99.90;;;;;;5078452;28;19908;-56
2021/01/12 08:49:07;;;;;;;;;;;9.70;99.90;;;;;;5078712;28;20003;-57
2021/01/12 08:51:33;;;;;;;;;;;9.70;99.90;;;;;;5078368;28;19954;-56
2021/01/12 08:53:59;;;;;;;;;;;9.80;99.90;;;;;;5077176;28;20279;-57
2021/01/12 08:56:25;;;;;;;;;;;9.80;99.90;;;;;;5078261;28;19994;-57
2021/01/12 08:59:01;;;;;;;;;;;9.80;99.90;;;;;;5078477;28;19943;-57
2021/01/12 09:01:27;;;;;;;;;;;9.80;99.90;;;;;;5078083;28;19954;-57
2021/01/12 09:04:06;;;;;;;;;;;9.90;99.90;;;;;;5078385;28;19951;-57
2021/01/12 09:06:31;;;;;;;;;;;9.80;99.90;;;;;;5078060;28;20330;-56
2021/01/12 09:09:10;;;;;;;;;;;9.90;99.90;;;;;;5078258;28;19912;-56
2021/01/12 09:11:37;;;;;;;;;;;9.80;99.90;;;;;;5077247;28;19904;-55
2021/01/12 09:14:06;;;;;;;;;;;9.80;99.90;;;;;;5078172;28;19952;-56
2021/01/12 09:16:32;;;;;;;;;;;9.80;99.90;;;;;;5076681;28;20276;-56
2021/01/12 09:18:58;;;;;;;;;;;9.80;99.90;;;;;;5078037;28;20216;-56
2021/01/12 09:21:23;;;;;;;;;;;9.80;99.90;;;;;;5077621;28;19939;-56
2021/01/12 09:23:49;;;;;;;;;;;9.80;99.90;;;;;;5072986;28;19934;-56
2021/01/12 09:26:19;;;;;;;;;;;9.80;99.90;;;;;;5067653;28;20181;-53
2021/01/12 09:28:44;;;;;;;;;;;9.80;99.90;;;;;;5065899;28;19958;-54
2021/01/12 09:31:14;;;;;;;;;;;9.80;99.90;;;;;;5066046;28;19951;-54
2021/01/12 09:33:50;;;;;;;;;;;9.80;99.90;;;;;;5065280;28;20279;-54
2021/01/12 09:36:17;;;;;;;;;;;9.80;99.90;;;;;;5063603;28;19908;-54
2021/01/12 09:38:44;;;;;;;;;;;9.70;99.90;;;;;;5106248;28;19916;-55
2021/01/12 09:41:10;;;;;;;;;;;9.70;99.90;;;;;;5102930;28;19950;-56
2021/01/12 09:43:36;;;;;;;;;;;9.70;99.90;;;;;;5105976;28;19912;-56
2021/01/12 09:46:02;;;;;;;;;;;9.80;99.90;;;;;;5105846;28;19919;-56
2021/01/12 09:48:27;;;;;;;;;;;9.70;99.90;;;;;;5104574;28;19916;-56
2021/01/12 09:50:53;;;;;;;;;;;9.80;99.90;;;;;;5106294;28;19907;-55
2021/01/12 09:53:18;;;;;;;;;;;9.80;99.90;;;;;;5104855;28;19904;-56
2021/01/12 09:55:44;;;;;;;;;;;9.80;99.90;;;;;;5104497;28;19911;-55
2021/01/12 09:58:10;;;;;;;;;;;9.80;99.90;;;;;;5106154;28;19907;-56
2021/01/12 10:00:35;;;;;;;;;;;9.80;99.90;;;;;;5104359;28;19904;-56
2021/01/12 10:03:03;;;;;;;;;;;9.90;99.90;;;;;;5104833;28;20302;-56
2021/01/12 10:05:28;;;;;;;;;;;9.90;99.90;;;;;;5106226;28;19904;-56
2021/01/12 10:07:54;;;;;;;;;;;9.90;99.90;;;;;;5104655;28;19919;-56
2021/01/12 10:10:19;;;;;;;;;;;9.90;99.90;;;;;;5105582;28;19918;-56
2021/01/12 10:12:45;;;;;;;;;;;10.00;99.90;;;;;;5102364;28;19912;-56
2021/01/12 10:15:10;;;;;;;;;;;9.90;99.90;;;;;;5103390;28;19915;-56
2021/01/12 10:17:36;;;;;;;;;;;10.00;99.90;;;;;;5104104;28;19912;-56
2021/01/12 10:20:02;;;;;;;;;;;10.00;99.90;;;;;;5114600;27;19922;-55
2021/01/12 10:22:27;;;;;;;;;;;10.00;99.90;;;;;;5106042;28;20306;-56
2021/01/12 10:24:57;;;;;;;;;;;10.10;99.90;;;;;;5091259;27;19950;-56
2021/01/12 10:27:23;;;;;;;;;;;10.20;99.90;;;;;;5105061;27;19981;-55
2021/01/12 10:29:49;;;;;;;;;;;10.20;99.90;;;;;;5104516;28;19923;-55
2021/01/12 10:32:14;;;;;;;;;;;10.10;99.90;;;;;;5103848;28;20290;-55
2021/01/12 10:34:40;;;;;;;;;;;10.10;99.90;;;;;;5105006;28;19960;-55
2021/01/12 10:37:05;;;;;;;;;;;10.00;99.90;;;;;;5104902;28;19916;-56
2021/01/12 10:39:31;;;;;;;;;;;10.00;99.90;;;;;;5095244;28;19919;-55
2021/01/12 10:41:57;;;;;;;;;;;10.10;99.90;;;;;;5106056;28;19919;-55
2021/01/12 10:44:22;;;;;;;;;;;10.10;99.90;;;;;;5103908;28;19919;-55
2021/01/12 10:46:55;;;;;;;;;;;10.10;99.90;;;;;;5104802;28;20363;-55
2021/01/12 10:49:21;;;;;;;;;;;10.10;99.90;;;;;;5105649;28;20310;-55
2021/01/12 10:51:46;;;;;;;;;;;10.10;99.90;;;;;;5104704;28;19915;-54
2021/01/12 10:54:12;;;;;;;;;;;10.20;99.90;;;;;;5107040;28;19919;-55
2021/01/12 10:56:37;;;;;;;;;;;10.20;99.90;;;;;;5103668;28;19916;-55
2021/01/12 10:59:03;;;;;;;;;;;10.20;99.90;;;;;;5103451;28;19915;-55
2021/01/12 11:01:29;;;;;;;;;;;10.20;99.90;;;;;;5104922;28;19908;-55
2021/01/12 11:03:55;;;;;;;;;;;10.20;99.90;;;;;;5105498;28;19957;-54
2021/01/12 11:06:21;;;;;;;;;;;10.20;99.90;;;;;;5104114;28;19967;-55
2021/01/12 11:08:47;;;;;;;;;;;10.30;99.90;;;;;;5105455;28;19911;-55
2021/01/12 11:11:18;;;;;;;;;;;10.30;99.90;;;;;;5105203;28;19908;-55
2021/01/12 11:13:44;;;;;;;;;;;10.40;99.90;;;;;;5103677;28;20016;-55
2021/01/12 11:16:15;;;;;;;;;;;10.40;99.90;;;;;;5104779;28;19944;-54
2021/01/12 11:18:40;;;;;;;;;;;10.40;99.90;;;;;;5105537;28;19912;-56
2021/01/12 11:21:06;;;;;;;;;;;10.50;99.90;;;;;;5103086;28;19957;-56
2021/01/12 11:23:32;;;;;;;;;;;10.50;99.90;;;;;;5093934;28;19912;-56
2021/01/12 11:25:57;;;;;;;;;;;10.60;99.90;;;;;;5107403;28;19957;-56
2021/01/12 11:28:23;;;;;;;;;;;10.60;99.90;;;;;;5103297;28;19920;-56
2021/01/12 11:30:49;;;;;;;;;;;10.60;99.90;;;;;;5104763;28;19930;-55
2021/01/12 11:33:14;;;;;;;;;;;10.70;99.90;;;;;;5097080;28;20011;-55
2021/01/12 11:35:40;;;;;;;;;;;10.70;99.90;;;;;;5098951;28;20282;-55
2021/01/12 11:38:06;;;;;;;;;;;10.80;99.90;;;;;;5100737;28;19973;-55
2021/01/12 11:40:31;;;;;;;;;;;10.90;99.90;;;;;;5100554;28;20306;-55
2021/01/12 11:42:58;;;;;;;;;;;10.90;99.90;;;;;;5099788;28;20199;-55
2021/01/12 11:45:24;;;;;;;;;;;10.90;99.90;;;;;;5100084;28;19914;-55
2021/01/12 11:47:49;;;;;;;;;;;11.00;99.90;;;;;;5099897;28;19916;-55
2021/01/12 11:50:15;;;;;;;;;;;10.90;99.90;;;;;;5104664;28;19937;-55
2021/01/12 11:52:41;;;;;;;;;;;11.00;99.90;;;;;;5118456;28;19923;-56
2021/01/12 11:55:07;;;;;;;;;;;10.90;99.90;;;;;;5104500;28;19915;-54
2021/01/12 11:57:32;;;;;;;;;;;10.90;99.90;;;;;;5099759;28;19980;-54
2021/01/12 11:59:58;;;;;;;;;;;10.90;99.90;;;;;;5100007;28;19939;-54
2021/01/12 12:02:23;;;;;;;;;;;11.00;99.90;;;;;;5111127;28;20348;-53
2021/01/12 12:04:49;;;;;;;;;;;11.00;99.90;;;;;;5119902;28;19912;-55
2021/01/12 12:07:14;;;;;;;;;;;11.10;99.90;;;;;;5118792;28;19912;-54
2021/01/12 12:09:40;;;;;;;;;;;11.10;99.90;;;;;;5118075;28;19908;-54
2021/01/12 12:12:06;;;;;;;;;;;11.00;99.90;;;;;;5117218;28;19908;-52
2021/01/12 12:14:31;;;;;;;;;;;11.10;99.90;;;;;;5118398;28;19912;-53
2021/01/12 12:16:57;;;;;;;;;;;11.00;99.90;;;;;;5119536;28;19907;-53
2021/01/12 12:19:23;;;;;;;;;;;11.00;99.90;;;;;;5118527;28;19907;-52
2021/01/12 12:21:51;;;;;;;;;;;10.90;99.90;;;;;;5099453;28;19926;-51
2021/01/12 12:24:17;;;;;;;;;;;10.90;99.90;;;;;;5109730;27;20006;-52
2021/01/12 12:26:46;;;;;;;;;;;10.90;99.90;;;;;;5115192;28;19998;-53
2021/01/12 12:29:12;;;;;;;;;;;10.90;99.90;;;;;;5104365;28;20326;-52
2021/01/12 12:31:38;;;;;;;;;;;10.80;99.90;;;;;;5113579;28;19949;-52
2021/01/12 12:34:04;;;;;;;;;;;10.80;99.90;;;;;;5100234;28;19908;-52
2021/01/12 12:36:30;;;;;;;;;;;10.70;99.90;;;;;;5104611;28;19955;-52
2021/01/12 12:38:55;;;;;;;;;;;10.70;99.90;;;;;;5106157;28;20438;-53
2021/01/12 12:41:21;;;;;;;;;;;10.70;99.90;;;;;;5117001;27;19916;-52
2021/01/12 12:43:47;;;;;;;;;;;10.70;99.90;;;;;;5114274;27;20011;-52
2021/01/12 12:46:15;;;;;;;;;;;10.70;99.90;;;;;;5105499;28;19990;-54
2021/01/12 12:48:43;;;;;;;;;;;10.70;99.90;;;;;;5104429;28;19915;-52
2021/01/12 12:51:09;;;;;;;;;;;10.60;99.90;;;;;;5108420;28;19910;-52
2021/01/12 12:53:36;;;;;;;;;;;10.70;99.90;;;;;;5115772;27;19908;-53
2021/01/12 12:56:02;;;;;;;;;;;10.60;99.90;;;;;;5104357;28;19912;-53
2021/01/12 12:58:31;;;;;;;;;;;10.70;99.90;;;;;;5113289;28;20195;-53
2021/01/12 13:00:57;;;;;;;;;;;10.60;99.90;;;;;;5107949;28;19914;-53
2021/01/12 13:03:23;;;;;;;;;;;10.60;99.90;;;;;;5104743;28;19920;-53
2021/01/12 13:05:48;;;;;;;;;;;10.50;99.90;;;;;;5098819;28;19911;-52
2021/01/12 13:08:14;;;;;;;;;;;10.40;99.90;;;;;;5098631;28;19916;-52
2021/01/12 13:10:40;;;;;;;;;;;10.40;99.90;;;;;;5117032;28;19904;-52
2021/01/12 13:13:08;;;;;;;;;;;10.30;99.90;;;;;;5099931;28;19923;-52
2021/01/12 13:15:33;;;;;;;;;;;10.30;99.90;;;;;;5104033;28;19943;-53
2021/01/12 13:17:59;;;;;;;;;;;10.00;99.90;;;;;;5103100;28;20345;-53
2021/01/12 13:20:25;;;;;;;;;;;9.90;99.90;;;;;;5106369;28;19935;-53
2021/01/12 13:22:51;;;;;;;;;;;9.80;99.90;;;;;;5103282;28;19959;-52
2021/01/12 13:25:17;;;;;;;;;;;9.70;99.90;;;;;;5101445;28;19916;-52
2021/01/12 13:27:44;;;;;;;;;;;9.70;99.90;;;;;;5103442;28;19919;-52
2021/01/12 13:30:10;;;;;;;;;;;9.70;99.90;;;;;;5100200;28;19916;-52
2021/01/12 13:32:39;;;;;;;;;;;9.60;99.90;;;;;;5108936;28;20302;-52
2021/01/12 13:35:05;;;;;;;;;;;9.50;99.90;;;;;;5104693;28;19971;-52
2021/01/12 13:37:31;;;;;;;;;;;9.40;99.90;;;;;;5104018;28;19928;-51
2021/01/12 13:39:58;;;;;;;;;;;9.20;99.90;;;;;;5104193;28;19939;-52
2021/01/12 13:42:23;;;;;;;;;;;9.20;99.90;;;;;;5100853;28;20026;-54
2021/01/12 13:44:49;;;;;;;;;;;9.10;99.90;;;;;;5113763;27;19999;-53
2021/01/12 13:47:16;;;;;;;;;;;8.90;99.90;;;;;;5106539;28;20015;-54
2021/01/12 13:49:42;;;;;;;;;;;8.80;99.90;;;;;;5102880;28;20012;-53
2021/01/12 13:52:08;;;;;;;;;;;8.60;99.90;;;;;;5102071;28;19911;-53
2021/01/12 13:54:33;;;;;;;;;;;8.50;99.90;;;;;;5102076;28;19916;-54
2021/01/12 13:56:59;;;;;;;;;;;8.40;99.90;;;;;;5104974;28;20229;-53
2021/01/12 13:59:25;;;;;;;;;;;8.40;99.90;;;;;;5103290;28;19922;-53
2021/01/12 14:01:52;;;;;;;;;;;8.40;99.90;;;;;;5102778;28;20003;-53
2021/01/12 14:04:18;;;;;;;;;;;8.40;99.90;;;;;;5105356;28;19943;-53
2021/01/12 14:06:43;;;;;;;;;;;8.40;99.90;;;;;;5106360;28;19943;-53
2021/01/12 14:09:09;;;;;;;;;;;8.40;99.90;;;;;;5101628;28;19921;-52
2021/01/12 14:11:38;;;;;;;;;;;8.50;99.90;;;;;;5104261;28;19975;-52
2021/01/12 14:14:03;;;;;;;;;;;8.50;99.90;;;;;;5105514;28;19907;-54
2021/01/12 14:16:29;;;;;;;;;;;8.50;99.90;;;;;;5103215;28;19965;-52
2021/01/12 14:18:55;;;;;;;;;;;8.40;99.90;;;;;;5100390;28;19998;-53
2021/01/12 14:21:21;;;;;;;;;;;8.30;99.90;;;;;;5105650;28;20006;-53
2021/01/12 14:23:51;;;;;;;;;;;8.20;99.90;;;;;;5104072;28;19923;-53
2021/01/12 14:26:17;;;;;;;;;;;8.40;99.90;;;;;;5103338;28;20345;-53